Time;durP1;ratioP1;P1;durP2;ratioP2;P2;SDS_P1;SDS_P2;PMS_P1;PMS_P2;Temp;Humidity;BMP_temperature;BMP_pressure;BME280_temperature;BME280_humidity;BME280_pressure;Samples;Min_cycle;Max_cycle;Signal;HPM_P1;HPM_P2
2021/05/14 00:01:41;;;;;;;3.67;3.30;;;12.30;99.90;;;;;;4936862;29;20640;-51
2021/05/14 00:04:08;;;;;;;5.00;4.47;;;12.40;99.90;;;;;;4937355;29;20770;-49
2021/05/14 00:06:34;;;;;;;3.63;3.33;;;12.40;99.90;;;;;;4937464;29;20449;-47
2021/05/14 00:09:00;;;;;;;2.57;2.37;;;12.40;99.90;;;;;;4937223;29;20788;-49
2021/05/14 00:11:26;;;;;;;2.60;2.40;;;12.30;99.90;;;;;;4938184;29;20786;-48
2021/05/14 00:13:54;;;;;;;3.53;2.30;;;12.30;99.90;;;;;;4938107;29;20457;-47
2021/05/14 00:16:23;;;;;;;3.13;2.43;;;12.30;99.90;;;;;;4937189;29;20485;-48
2021/05/14 00:18:49;;;;;;;4.30;2.00;;;12.30;99.90;;;;;;4937288;29;20452;-51
2021/05/14 00:21:15;;;;;;;2.60;1.83;;;12.30;99.90;;;;;;4938610;29;20468;-52
2021/05/14 00:23:41;;;;;;;3.70;1.73;;;12.30;99.90;;;;;;4941113;29;20506;-55
2021/05/14 00:26:07;;;;;;;2.40;1.60;;;12.30;99.90;;;;;;4940413;29;20455;-48
2021/05/14 00:28:33;;;;;;;1.67;1.50;;;12.30;99.90;;;;;;4941005;29;20468;-50
2021/05/14 00:31:00;;;;;;;1.60;1.50;;;12.30;99.90;;;;;;4940909;29;20461;-48
2021/05/14 00:33:27;;;;;;;1.97;1.83;;;12.30;99.90;;;;;;4940907;29;20454;-49
2021/05/14 00:35:53;;;;;;;1.90;1.70;;;12.20;99.90;;;;;;4941807;28;20481;-48
2021/05/14 00:38:19;;;;;;;1.60;1.43;;;12.20;99.90;;;;;;4940786;29;20455;-52
2021/05/14 00:40:45;;;;;;;2.27;2.07;;;12.20;99.90;;;;;;4940629;29;20473;-47
2021/05/14 00:43:11;;;;;;;2.40;1.97;;;12.10;99.90;;;;;;4940760;29;20452;-51
2021/05/14 00:45:37;;;;;;;2.43;2.23;;;12.10;99.90;;;;;;4940179;29;20452;-52
2021/05/14 00:48:05;;;;;;;2.20;1.70;;;12.10;99.90;;;;;;4939700;29;20452;-52
2021/05/14 00:50:31;;;;;;;2.43;1.80;;;12.10;99.90;;;;;;4939840;29;20456;-54
2021/05/14 00:52:57;;;;;;;2.57;2.37;;;12.10;99.90;;;;;;4939705;29;20465;-50
2021/05/14 00:55:24;;;;;;;2.30;1.87;;;12.10;99.90;;;;;;4939534;29;20495;-53
2021/05/14 00:57:50;;;;;;;1.73;1.50;;;12.10;99.90;;;;;;4939498;29;20452;-53
2021/05/14 01:00:17;;;;;;;1.50;1.30;;;12.10;99.90;;;;;;4939205;29;20468;-53
2021/05/14 01:02:43;;;;;;;2.03;1.83;;;12.10;99.90;;;;;;4938962;29;20894;-54
2021/05/14 01:05:12;;;;;;;2.40;1.63;;;12.20;99.90;;;;;;4940207;29;20902;-52
2021/05/14 01:07:38;;;;;;;4.90;1.77;;;12.20;99.90;;;;;;4939992;29;20449;-49
2021/05/14 01:10:05;;;;;;;2.00;1.70;;;12.20;99.90;;;;;;4940507;29;20481;-54
2021/05/14 01:12:31;;;;;;;1.80;1.70;;;12.10;99.90;;;;;;4940967;29;20449;-47
2021/05/14 01:14:57;;;;;;;2.03;1.60;;;12.10;99.90;;;;;;4939787;29;20936;-53
2021/05/14 01:17:24;;;;;;;1.77;1.60;;;12.00;99.90;;;;;;4939594;29;20472;-53
2021/05/14 01:19:50;;;;;;;1.80;1.50;;;12.00;99.90;;;;;;4939601;29;20460;-55
2021/05/14 01:22:18;;;;;;;2.27;1.77;;;12.00;99.90;;;;;;4939300;29;20473;-51
2021/05/14 01:24:45;;;;;;;2.23;1.90;;;12.00;99.90;;;;;;4939048;29;20977;-50
2021/05/14 01:27:11;;;;;;;1.70;1.60;;;12.00;99.90;;;;;;4938842;29;20471;-54
2021/05/14 01:29:37;;;;;;;1.70;1.60;;;12.00;99.90;;;;;;4938897;29;20449;-50
2021/05/14 01:32:04;;;;;;;2.17;1.40;;;12.10;99.90;;;;;;4939632;29;20457;-50
2021/05/14 01:34:30;;;;;;;3.00;1.87;;;12.00;99.90;;;;;;4939077;29;20807;-51
2021/05/14 01:36:56;;;;;;;2.43;1.73;;;12.10;99.90;;;;;;4940066;29;20909;-51
2021/05/14 01:39:24;;;;;;;2.10;1.73;;;12.10;99.90;;;;;;4940956;29;20476;-48
2021/05/14 01:41:51;;;;;;;1.93;1.73;;;12.00;99.90;;;;;;4940374;29;20455;-53
2021/05/14 01:44:17;;;;;;;1.80;1.60;;;12.00;99.90;;;;;;4939237;29;20538;-55
2021/05/14 01:46:43;;;;;;;2.00;1.60;;;12.00;99.90;;;;;;4939118;29;20448;-51
2021/05/14 01:49:10;;;;;;;2.03;1.70;;;12.00;99.90;;;;;;4939551;29;20518;-54
2021/05/14 01:51:36;;;;;;;2.23;1.60;;;12.00;99.90;;;;;;4939971;29;20465;-53
2021/05/14 01:54:02;;;;;;;2.20;1.30;;;12.00;99.90;;;;;;4938960;29;20463;-53
2021/05/14 01:56:30;;;;;;;2.03;1.50;;;11.90;99.90;;;;;;4939754;29;20484;-52
2021/05/14 01:58:56;;;;;;;2.20;1.93;;;11.90;99.90;;;;;;4939572;29;20506;-50
2021/05/14 02:01:22;;;;;;;2.67;2.30;;;11.90;99.90;;;;;;4939708;29;20468;-49
2021/05/14 02:03:49;;;;;;;2.10;1.83;;;12.00;99.90;;;;;;4938623;29;20453;-53
2021/05/14 02:06:15;;;;;;;2.17;1.97;;;12.00;99.90;;;;;;4939247;29;20445;-49
2021/05/14 02:08:41;;;;;;;2.10;1.83;;;12.10;99.90;;;;;;4938322;29;20452;-51
2021/05/14 02:11:09;;;;;;;2.33;2.13;;;12.10;99.90;;;;;;4938456;29;20453;-49
2021/05/14 02:13:36;;;;;;;2.67;2.10;;;12.10;99.90;;;;;;4938285;29;20464;-50
2021/05/14 02:16:03;;;;;;;3.50;2.40;;;12.10;99.90;;;;;;4938092;29;20485;-52
2021/05/14 02:18:29;;;;;;;2.60;2.33;;;12.10;99.90;;;;;;4938012;29;20902;-51
2021/05/14 02:20:55;;;;;;;2.70;2.37;;;12.20;99.90;;;;;;4938369;28;20464;-52
2021/05/14 02:23:21;;;;;;;2.63;2.43;;;12.20;99.90;;;;;;4937695;29;20949;-51
2021/05/14 02:25:48;;;;;;;3.40;3.10;;;12.20;99.90;;;;;;4938274;29;20453;-52
2021/05/14 02:28:14;;;;;;;2.90;2.70;;;12.20;99.90;;;;;;4938326;29;20464;-54
2021/05/14 02:30:41;;;;;;;3.43;3.13;;;12.20;99.90;;;;;;4938102;29;20487;-49
2021/05/14 02:33:07;;;;;;;2.90;2.70;;;12.20;99.90;;;;;;4938061;29;20491;-51
2021/05/14 02:35:34;;;;;;;4.60;2.57;;;12.30;99.90;;;;;;4938320;29;20565;-54
2021/05/14 02:38:00;;;;;;;2.40;1.90;;;12.20;99.90;;;;;;4938831;28;20526;-51
2021/05/14 02:40:27;;;;;;;2.90;2.23;;;12.10;99.90;;;;;;4939059;29;20456;-49
2021/05/14 02:42:53;;;;;;;3.07;2.77;;;12.10;99.90;;;;;;4938719;29;20484;-49
2021/05/14 02:45:20;;;;;;;2.60;2.37;;;12.00;99.90;;;;;;4939235;29;20448;-50
2021/05/14 02:47:47;;;;;;;2.43;2.23;;;12.00;99.90;;;;;;4939323;29;20929;-49
2021/05/14 02:50:14;;;;;;;2.93;2.50;;;12.00;99.90;;;;;;4940033;29;20465;-52
2021/05/14 02:52:40;;;;;;;2.77;2.57;;;12.00;99.90;;;;;;4939440;29;20449;-52
2021/05/14 02:55:08;;;;;;;2.73;2.47;;;12.10;99.90;;;;;;4939408;29;20492;-51
2021/05/14 02:57:35;;;;;;;3.20;2.70;;;12.10;99.90;;;;;;4939158;29;20444;-49
2021/05/14 03:00:01;;;;;;;1.73;1.63;;;12.10;99.90;;;;;;4938260;29;20459;-48
2021/05/14 03:02:27;;;;;;;2.30;2.10;;;12.10;99.90;;;;;;4938108;29;20448;-46
2021/05/14 03:04:54;;;;;;;2.53;2.33;;;12.10;99.90;;;;;;4938601;28;20449;-51
2021/05/14 03:07:20;;;;;;;3.47;2.40;;;12.10;99.90;;;;;;4938735;29;20471;-51
2021/05/14 03:09:47;;;;;;;2.40;2.07;;;12.10;99.90;;;;;;4937784;29;20495;-49
2021/05/14 03:12:13;;;;;;;2.53;2.33;;;12.10;99.90;;;;;;4937685;29;20913;-52
2021/05/14 03:14:39;;;;;;;3.63;3.27;;;12.10;99.90;;;;;;4938169;29;20507;-51
2021/05/14 03:17:05;;;;;;;3.57;2.80;;;12.10;99.90;;;;;;4938423;29;20495;-48
2021/05/14 03:19:31;;;;;;;2.90;2.70;;;12.10;99.90;;;;;;4938617;29;20463;-49
2021/05/14 03:21:58;;;;;;;3.73;3.30;;;12.10;99.90;;;;;;4937802;29;20441;-52
2021/05/14 03:24:25;;;;;;;2.63;2.40;;;12.00;99.90;;;;;;4938476;29;20444;-51
2021/05/14 03:26:53;;;;;;;3.70;3.20;;;12.00;99.90;;;;;;4937821;29;20449;-53
2021/05/14 03:29:20;;;;;;;3.53;3.23;;;12.00;99.90;;;;;;4937346;29;20449;-54
2021/05/14 03:31:46;;;;;;;3.77;3.47;;;12.00;99.90;;;;;;4937955;29;20457;-52
2021/05/14 03:34:12;;;;;;;3.80;3.40;;;12.00;99.90;;;;;;4937053;29;20933;-52
2021/05/14 03:36:38;;;;;;;6.50;3.80;;;12.00;99.90;;;;;;4937061;29;20488;-49
2021/05/14 03:39:08;;;;;;;4.03;3.17;;;12.00;99.90;;;;;;4937957;29;20448;-54
2021/05/14 03:41:45;;;;;;;3.47;3.17;;;12.00;99.90;;;;;;4938183;29;20465;-49
2021/05/14 03:44:11;;;;;;;3.17;2.83;;;12.00;99.90;;;;;;4938578;29;20441;-49
2021/05/14 03:46:37;;;;;;;3.90;3.50;;;12.00;99.90;;;;;;4938468;29;20449;-48
2021/05/14 03:49:04;;;;;;;4.23;3.37;;;11.90;99.90;;;;;;4938870;29;20452;-48
2021/05/14 03:51:30;;;;;;;3.30;2.93;;;12.00;99.90;;;;;;4937402;29;20487;-53
2021/05/14 03:53:57;;;;;;;3.60;3.30;;;11.90;99.90;;;;;;4936950;29;20783;-52
2021/05/14 03:56:24;;;;;;;7.27;3.70;;;11.90;99.90;;;;;;4939074;29;20492;-52
2021/05/14 03:58:50;;;;;;;5.03;4.40;;;11.90;99.90;;;;;;4939999;29;20457;-51
2021/05/14 04:01:17;;;;;;;4.17;3.77;;;11.90;99.90;;;;;;4941372;29;20452;-51
2021/05/14 04:03:45;;;;;;;4.10;3.40;;;12.00;99.90;;;;;;4941735;29;20809;-51
2021/05/14 04:06:12;;;;;;;6.80;4.40;;;11.90;99.90;;;;;;4940621;29;20449;-52
2021/05/14 04:08:38;;;;;;;7.50;4.87;;;11.90;99.90;;;;;;4941019;29;20461;-53
2021/05/14 04:11:26;;;;;;;4.20;3.63;;;11.90;99.90;;;;;;4941227;29;20813;-48
2021/05/14 04:16:37;;;;;;;4.40;3.30;;;11.90;99.90;;;;;;4941560;29;20884;-46
2021/05/14 04:19:03;;;;;;;5.30;4.13;;;11.90;99.90;;;;;;4941532;28;20457;-48
2021/05/14 04:21:29;;;;;;;3.70;2.20;;;11.90;99.90;;;;;;4942106;29;20455;-49
2021/05/14 04:23:55;;;;;;;2.30;2.10;;;12.00;99.90;;;;;;4940528;29;20452;-50
2021/05/14 04:26:22;;;;;;;3.23;2.20;;;12.00;99.90;;;;;;4940300;29;20464;-51
2021/05/14 04:28:48;;;;;;;2.37;2.17;;;12.00;99.90;;;;;;4940820;29;20536;-50
2021/05/14 04:31:15;;;;;;;2.60;2.20;;;12.00;99.90;;;;;;4940789;29;20437;-51
2021/05/14 04:33:41;;;;;;;3.10;2.80;;;11.90;99.90;;;;;;4941009;29;20543;-49
2021/05/14 04:36:09;;;;;;;2.87;2.67;;;11.90;99.90;;;;;;4940506;29;20484;-49
2021/05/14 04:38:35;;;;;;;4.67;3.03;;;11.80;99.90;;;;;;4941120;29;20840;-48
2021/05/14 04:41:01;;;;;;;3.23;2.93;;;11.90;99.90;;;;;;4941485;29;20814;-53
2021/05/14 04:43:27;;;;;;;2.77;2.30;;;11.90;99.90;;;;;;4941878;29;20479;-49
2021/05/14 04:45:54;;;;;;;3.33;2.50;;;11.90;99.90;;;;;;4941437;29;20449;-53
2021/05/14 04:48:20;;;;;;;3.40;2.63;;;11.90;99.90;;;;;;4940637;29;20456;-50
2021/05/14 04:50:47;;;;;;;2.97;2.50;;;11.90;99.90;;;;;;4940859;29;20567;-51
2021/05/14 04:53:14;;;;;;;2.50;2.13;;;11.90;99.90;;;;;;4940539;29;20463;-49
2021/05/14 04:55:41;;;;;;;2.67;2.10;;;11.90;99.90;;;;;;4939743;29;20488;-47
2021/05/14 04:58:07;;;;;;;4.90;2.57;;;11.90;99.90;;;;;;4940459;29;20464;-50
2021/05/14 05:00:33;;;;;;;4.27;2.23;;;11.80;99.90;;;;;;4940586;29;20475;-54
2021/05/14 05:03:01;;;;;;;3.03;2.73;;;11.80;99.90;;;;;;4940874;29;20452;-53
2021/05/14 05:05:28;;;;;;;2.80;2.50;;;11.70;99.90;;;;;;4940525;29;20453;-49
2021/05/14 05:07:54;;;;;;;3.07;2.60;;;11.70;99.90;;;;;;4940212;29;20896;-52
2021/05/14 05:10:21;;;;;;;4.13;3.03;;;11.70;99.90;;;;;;4940401;29;20550;-47
2021/05/14 05:12:47;;;;;;;3.50;2.93;;;11.70;99.90;;;;;;4941181;29;20463;-47
2021/05/14 05:15:14;;;;;;;4.17;3.00;;;11.60;99.90;;;;;;4940907;29;20930;-47
2021/05/14 05:17:41;;;;;;;3.87;3.50;;;11.60;99.90;;;;;;4943643;28;20476;-48
2021/05/14 05:20:08;;;;;;;3.17;2.70;;;11.70;99.90;;;;;;4943572;29;20531;-52
2021/05/14 05:22:35;;;;;;;3.73;2.47;;;11.60;99.90;;;;;;4944674;29;20789;-50
2021/05/14 05:25:02;;;;;;;3.67;3.37;;;11.60;99.90;;;;;;4944842;29;20445;-53
2021/05/14 05:27:28;;;;;;;3.60;2.43;;;11.50;99.90;;;;;;4944207;29;20453;-49
2021/05/14 05:29:54;;;;;;;3.23;2.93;;;11.50;99.90;;;;;;4944303;29;20471;-49
2021/05/14 05:32:20;;;;;;;3.63;3.27;;;11.50;99.90;;;;;;4944001;29;20483;-47
2021/05/14 05:34:46;;;;;;;3.00;2.30;;;11.50;99.90;;;;;;4944292;29;20468;-47
2021/05/14 05:37:13;;;;;;;3.20;2.63;;;11.50;99.90;;;;;;4944852;29;20514;-49
2021/05/14 05:39:42;;;;;;;3.80;2.50;;;11.50;99.90;;;;;;4944613;29;20464;-51
2021/05/14 05:42:08;;;;;;;6.10;3.17;;;11.40;99.90;;;;;;4944545;29;20452;-53
2021/05/14 05:44:34;;;;;;;3.43;2.20;;;11.50;99.90;;;;;;4943288;29;20445;-50
2021/05/14 05:47:00;;;;;;;2.33;2.13;;;11.60;99.90;;;;;;4942406;29;20465;-51
2021/05/14 05:49:26;;;;;;;2.40;2.03;;;11.60;99.90;;;;;;4942950;29;20453;-52
2021/05/14 05:51:55;;;;;;;3.20;2.10;;;11.70;99.90;;;;;;4943603;29;20964;-48
2021/05/14 05:54:21;;;;;;;4.50;2.80;;;11.70;99.90;;;;;;4943643;29;20554;-51
2021/05/14 05:56:50;;;;;;;2.77;2.23;;;11.70;99.90;;;;;;4942550;29;20484;-48
2021/05/14 05:59:17;;;;;;;2.93;2.60;;;11.70;99.90;;;;;;4942795;29;20457;-47
2021/05/14 06:01:44;;;;;;;4.40;2.93;;;11.60;99.90;;;;;;4942499;29;20460;-46
2021/05/14 06:04:10;;;;;;;4.53;2.90;;;11.70;99.90;;;;;;4942464;29;20458;-48
2021/05/14 06:06:36;;;;;;;4.83;3.27;;;11.70;99.90;;;;;;4941938;29;20453;-47
2021/05/14 06:09:03;;;;;;;4.37;2.60;;;11.70;99.90;;;;;;4941988;28;20507;-48
2021/05/14 06:11:29;;;;;;;4.00;2.60;;;11.80;99.90;;;;;;4941585;29;20465;-47
2021/05/14 06:13:56;;;;;;;3.93;3.53;;;11.90;99.90;;;;;;4942596;29;20468;-46
2021/05/14 06:16:22;;;;;;;4.63;2.97;;;11.90;99.90;;;;;;4942744;29;20832;-50
2021/05/14 06:18:52;;;;;;;4.40;3.60;;;11.90;99.90;;;;;;4942027;29;20453;-53
2021/05/14 06:21:19;;;;;;;3.50;3.00;;;11.90;99.90;;;;;;4942180;29;20445;-53
2021/05/14 06:23:48;;;;;;;4.30;3.73;;;11.90;99.90;;;;;;4944406;29;20461;-53
2021/05/14 06:26:15;;;;;;;4.77;3.70;;;11.90;99.90;;;;;;4941651;29;20456;-53
2021/05/14 06:28:41;;;;;;;5.20;3.10;;;11.90;99.90;;;;;;4941823;29;20456;-55
2021/05/14 06:31:08;;;;;;;4.73;3.80;;;11.90;99.90;;;;;;4942171;29;20480;-49
2021/05/14 06:33:35;;;;;;;7.20;4.73;;;11.90;99.90;;;;;;4942214;29;20456;-51
2021/05/14 06:36:01;;;;;;;5.43;4.57;;;11.90;99.90;;;;;;4943459;29;20511;-53
2021/05/14 06:38:28;;;;;;;5.40;4.10;;;11.80;99.90;;;;;;4943783;29;20452;-49
2021/05/14 06:40:54;;;;;;;4.67;3.80;;;11.70;99.90;;;;;;4944694;29;20503;-51
2021/05/14 06:43:20;;;;;;;8.63;3.93;;;11.70;99.90;;;;;;4943977;29;20453;-50
2021/05/14 06:45:47;;;;;;;5.67;4.70;;;11.60;99.90;;;;;;4946029;29;20536;-49
2021/05/14 06:48:14;;;;;;;5.30;3.80;;;11.60;99.90;;;;;;4938788;29;20532;-53
2021/05/14 06:50:41;;;;;;;6.80;4.07;;;11.60;99.90;;;;;;4942258;29;21011;-49
2021/05/14 06:53:08;;;;;;;4.90;3.27;;;11.60;99.90;;;;;;4944674;29;20489;-53
2021/05/14 06:55:34;;;;;;;5.00;4.03;;;11.60;99.90;;;;;;4942306;29;20512;-53
2021/05/14 06:58:01;;;;;;;4.93;3.33;;;11.70;99.90;;;;;;4940145;29;20445;-51
2021/05/14 07:00:27;;;;;;;3.90;2.60;;;11.70;99.90;;;;;;4946054;29;20460;-51
2021/05/14 07:02:53;;;;;;;12.43;2.93;;;11.70;99.90;;;;;;4938935;29;20448;-54
2021/05/14 07:05:20;;;;;;;3.93;3.07;;;11.60;99.90;;;;;;4942009;29;20425;-52
2021/05/14 07:07:46;;;;;;;3.97;2.77;;;11.60;99.90;;;;;;4942771;29;20452;-53
2021/05/14 07:10:13;;;;;;;3.40;2.80;;;11.70;99.90;;;;;;4943161;29;20495;-52
2021/05/14 07:12:39;;;;;;;5.17;3.50;;;11.60;99.90;;;;;;4943625;29;20448;-52
2021/05/14 07:15:09;;;;;;;4.43;2.90;;;11.60;99.90;;;;;;4946853;29;20508;-51
2021/05/14 07:17:35;;;;;;;5.80;2.80;;;11.60;99.90;;;;;;4943807;29;20512;-45
2021/05/14 07:20:01;;;;;;;3.03;2.53;;;11.50;99.90;;;;;;4943859;29;20448;-52
2021/05/14 07:22:28;;;;;;;3.57;2.97;;;11.50;99.90;;;;;;4943428;29;20456;-54
2021/05/14 07:24:55;;;;;;;3.73;2.73;;;11.50;99.90;;;;;;4943125;29;20503;-52
2021/05/14 07:27:22;;;;;;;3.50;2.80;;;11.50;99.90;;;;;;4948772;29;20465;-47
2021/05/14 07:29:59;;;;;;;3.97;2.70;;;11.60;99.90;;;;;;4950828;29;20456;-50
2021/05/14 07:32:25;;;;;;;3.50;2.60;;;11.50;99.90;;;;;;4949922;29;20491;-48
2021/05/14 07:34:53;;;;;;;2.83;2.33;;;11.60;99.90;;;;;;4941516;29;20471;-51
2021/05/14 07:37:19;;;;;;;5.87;2.20;;;11.60;99.90;;;;;;4941598;29;20464;-47
2021/05/14 07:39:46;;;;;;;3.70;2.20;;;11.70;99.90;;;;;;4945779;29;20479;-49
2021/05/14 07:42:13;;;;;;;2.43;2.10;;;11.60;99.90;;;;;;4941525;29;20449;-51
2021/05/14 07:44:39;;;;;;;3.00;2.30;;;11.70;99.90;;;;;;4943192;29;20441;-54
2021/05/14 07:47:06;;;;;;;2.60;2.40;;;11.70;99.90;;;;;;4942133;29;20504;-53
2021/05/14 07:49:32;;;;;;;3.27;2.33;;;11.80;99.90;;;;;;4940246;29;20459;-48
2021/05/14 07:51:59;;;;;;;2.87;1.90;;;11.80;99.90;;;;;;4940878;29;20471;-50
2021/05/14 07:54:31;;;;;;;2.47;2.10;;;11.80;99.90;;;;;;4943111;28;20942;-53
2021/05/14 07:56:58;;;;;;;3.17;2.47;;;11.80;99.90;;;;;;4926267;29;20474;-52
2021/05/14 07:59:26;;;;;;;4.70;2.50;;;11.90;99.90;;;;;;4935384;29;20502;-48
2021/05/14 08:01:54;;;;;;;2.87;2.07;;;12.00;99.90;;;;;;4932041;29;20471;-52
2021/05/14 08:04:20;;;;;;;2.67;1.93;;;12.00;99.90;;;;;;4931331;29;20453;-54
2021/05/14 08:06:49;;;;;;;1.87;1.67;;;12.00;99.90;;;;;;4922583;28;20468;-54
2021/05/14 08:09:19;;;;;;;2.50;1.70;;;11.90;99.90;;;;;;4928022;28;20469;-53
2021/05/14 08:11:47;;;;;;;2.37;1.90;;;11.90;99.90;;;;;;4930860;29;20457;-54
2021/05/14 08:14:14;;;;;;;3.03;2.10;;;12.00;99.90;;;;;;4927685;29;20477;-54
2021/05/14 08:16:41;;;;;;;2.67;2.10;;;12.00;99.90;;;;;;4930224;29;20492;-52
2021/05/14 08:19:07;;;;;;;1.77;1.67;;;12.10;99.90;;;;;;4929259;29;20526;-53
2021/05/14 08:21:33;;;;;;;1.90;1.70;;;12.00;99.90;;;;;;4927798;29;20477;-54
2021/05/14 08:24:00;;;;;;;1.80;1.70;;;12.00;99.90;;;;;;4922903;28;20536;-52
2021/05/14 08:26:26;;;;;;;3.80;3.50;;;11.90;99.90;;;;;;4936167;29;20480;-52
2021/05/14 08:28:56;;;;;;;1.87;1.60;;;11.80;99.90;;;;;;4922874;29;20446;-52
2021/05/14 08:31:23;;;;;;;3.17;2.40;;;11.80;99.90;;;;;;4922231;29;20487;-51
2021/05/14 08:33:49;;;;;;;1.93;1.70;;;11.80;99.90;;;;;;4921057;29;20468;-50
2021/05/14 08:36:15;;;;;;;2.00;1.80;;;11.80;99.90;;;;;;4926401;28;20504;-54
2021/05/14 08:38:42;;;;;;;3.43;1.70;;;11.90;99.90;;;;;;4932054;28;20441;-51
2021/05/14 08:41:10;;;;;;;1.97;1.50;;;11.90;99.90;;;;;;4937469;29;20448;-50
2021/05/14 08:43:37;;;;;;;2.33;1.50;;;11.80;99.90;;;;;;4925538;28;20488;-53
2021/05/14 08:46:05;;;;;;;3.13;1.80;;;11.90;99.90;;;;;;4925181;29;20441;-53
2021/05/14 08:48:35;;;;;;;2.07;1.80;;;11.80;99.90;;;;;;4928514;29;20812;-50
2021/05/14 08:51:05;;;;;;;5.20;2.10;;;11.80;99.90;;;;;;4938288;28;20457;-53
2021/05/14 08:53:32;;;;;;;4.50;2.53;;;11.60;99.90;;;;;;4953575;29;20448;-48
2021/05/14 08:55:58;;;;;;;4.80;2.27;;;11.60;99.90;;;;;;4955163;28;20484;-50
2021/05/14 08:58:25;;;;;;;3.00;2.37;;;11.50;99.90;;;;;;4943813;28;20460;-45
2021/05/14 09:00:51;;;;;;;8.20;2.60;;;11.50;99.90;;;;;;4947568;29;20471;-46
2021/05/14 09:03:18;;;;;;;3.50;2.20;;;11.40;99.90;;;;;;4952120;29;20545;-49
2021/05/14 09:05:48;;;;;;;3.60;3.20;;;11.40;99.90;;;;;;4939587;29;20825;-46
2021/05/14 09:08:25;;;;;;;3.10;2.30;;;11.30;99.90;;;;;;4950419;28;20488;-51
2021/05/14 09:10:52;;;;;;;4.90;2.50;;;11.40;99.90;;;;;;4951078;28;20476;-48
2021/05/14 09:13:19;;;;;;;5.53;3.00;;;11.40;99.90;;;;;;4939261;29;20465;-46
2021/05/14 09:15:46;;;;;;;3.37;2.47;;;11.40;99.90;;;;;;4935208;29;20496;-49
2021/05/14 09:18:14;;;;;;;3.10;2.57;;;11.30;99.90;;;;;;4943111;29;20476;-52
2021/05/14 09:20:45;;;;;;;5.37;2.63;;;11.20;99.90;;;;;;4933881;29;20831;-52
2021/05/14 09:23:40;;;;;;;7.80;2.97;;;11.20;99.90;;;;;;4950080;28;20499;-52
2021/05/14 09:26:07;;;;;;;2.60;2.17;;;11.20;99.90;;;;;;4914049;29;20476;-49
2021/05/14 09:28:37;;;;;;;6.03;2.07;;;11.20;99.90;;;;;;4948355;28;20466;-51
2021/05/14 09:31:12;;;;;;;4.80;2.80;;;11.20;99.90;;;;;;4945323;29;20448;-48
2021/05/14 09:33:40;;;;;;;5.93;3.00;;;11.30;99.90;;;;;;4943004;28;20523;-51
2021/05/14 09:36:11;;;;;;;4.53;2.80;;;11.30;99.90;;;;;;4946318;29;21027;-51
2021/05/14 09:38:46;;;;;;;4.00;2.60;;;11.30;99.90;;;;;;4936335;28;20449;-54
2021/05/14 09:41:29;;;;;;;2.37;1.83;;;11.40;99.90;;;;;;4947013;29;20775;-48
2021/05/14 09:43:57;;;;;;;2.43;2.13;;;11.50;99.90;;;;;;4933447;29;20487;-49
2021/05/14 09:46:32;;;;;;;2.00;1.40;;;11.50;99.90;;;;;;4946207;28;20952;-49
2021/05/14 09:49:00;;;;;;;3.13;1.90;;;11.50;99.90;;;;;;4938295;29;20845;-46
2021/05/14 09:51:28;;;;;;;2.67;1.40;;;11.50;99.90;;;;;;4933253;29;20466;-44
2021/05/14 09:53:55;;;;;;;2.90;1.70;;;11.40;99.90;;;;;;4932512;29;20760;-51
2021/05/14 09:56:28;;;;;;;3.50;1.70;;;11.40;99.90;;;;;;4938876;28;20577;-54
2021/05/14 09:58:57;;;;;;;3.23;1.53;;;11.30;99.90;;;;;;4929625;29;20787;-48
2021/05/14 10:01:24;;;;;;;3.27;2.20;;;11.40;99.90;;;;;;4936639;28;20477;-50
2021/05/14 10:03:51;;;;;;;3.03;2.00;;;11.40;99.90;;;;;;4933097;29;20448;-52
2021/05/14 10:06:19;;;;;;;5.03;2.03;;;11.50;99.90;;;;;;4940053;29;20452;-48
2021/05/14 10:08:50;;;;;;;9.57;3.30;;;11.60;99.90;;;;;;4950419;29;20478;-51
2021/05/14 10:11:21;;;;;;;3.17;2.30;;;11.70;99.90;;;;;;4948497;28;20448;-50
2021/05/14 10:13:48;;;;;;;3.30;2.30;;;11.80;99.90;;;;;;4938135;29;20790;-51
2021/05/14 10:16:16;;;;;;;3.10;1.90;;;11.90;99.90;;;;;;4946840;29;20590;-47
2021/05/14 10:18:46;;;;;;;2.63;1.87;;;11.90;99.90;;;;;;4940342;29;20453;-49
2021/05/14 10:21:13;;;;;;;2.30;2.10;;;12.00;99.90;;;;;;4944021;29;20449;-47
2021/05/14 10:23:44;;;;;;;4.23;2.00;;;12.10;99.90;;;;;;4930679;28;20940;-47
2021/05/14 10:26:11;;;;;;;2.67;2.23;;;12.10;99.90;;;;;;4949666;29;20555;-51
2021/05/14 10:28:44;;;;;;;3.77;2.17;;;12.10;99.90;;;;;;4939172;28;20488;-47
2021/05/14 10:31:21;;;;;;;6.00;2.47;;;12.10;99.90;;;;;;4946897;29;20453;-49
2021/05/14 10:33:52;;;;;;;3.07;1.90;;;12.10;99.90;;;;;;4943954;28;20513;-53
2021/05/14 10:36:40;;;;;;;4.10;1.43;;;12.00;99.90;;;;;;4932541;28;20473;-48
2021/05/14 10:39:09;;;;;;;2.33;1.60;;;12.00;99.90;;;;;;4937432;29;20477;-50
2021/05/14 10:41:48;;;;;;;2.80;2.10;;;11.90;99.90;;;;;;4937066;29;20972;-48
2021/05/14 10:44:16;;;;;;;2.33;1.50;;;12.00;99.90;;;;;;4945635;29;20540;-48
2021/05/14 10:46:42;;;;;;;2.57;1.63;;;12.10;99.90;;;;;;4944755;29;20450;-49
2021/05/14 10:49:12;;;;;;;3.37;1.50;;;12.20;99.90;;;;;;4948768;28;20488;-47
2021/05/14 10:52:01;;;;;;;2.73;1.57;;;12.20;99.90;;;;;;4941441;29;20535;-48
2021/05/14 10:54:53;;;;;;;1.70;1.30;;;12.30;99.90;;;;;;4937183;29;20440;-52
2021/05/14 10:57:48;;;;;;;2.80;1.80;;;12.30;99.90;;;;;;4940927;29;20507;-50
2021/05/14 11:00:35;;;;;;;2.07;1.30;;;12.60;99.90;;;;;;4940745;29;20445;-49
2021/05/14 11:03:19;;;;;;;2.10;1.87;;;13.00;99.90;;;;;;4941880;29;20475;-50
2021/05/14 11:05:48;;;;;;;2.03;1.57;;;13.20;99.90;;;;;;4933689;29;20890;-53
2021/05/14 11:08:40;;;;;;;8.33;2.30;;;13.40;99.90;;;;;;4938022;29;20578;-53
2021/05/14 11:11:10;;;;;;;1.50;1.13;;;13.90;99.90;;;;;;4941194;29;20502;-52
2021/05/14 11:13:42;;;;;;;2.47;1.50;;;14.30;99.90;;;;;;4949266;29;20535;-48
2021/05/14 11:16:37;;;;;;;4.90;2.10;;;14.60;99.90;;;;;;4946545;28;20479;-47
2021/05/14 11:19:11;;;;;;;3.77;1.90;;;15.00;99.90;;;;;;4931323;28;20459;-50
2021/05/14 11:22:09;;;;;;;4.00;1.97;;;15.20;99.90;;;;;;4929492;29;20587;-52
2021/05/14 11:24:41;;;;;;;3.47;1.70;;;15.30;99.90;;;;;;4934613;29;20460;-54
2021/05/14 11:27:10;;;;;;;3.20;1.40;;;15.30;99.90;;;;;;4929123;28;20469;-51
2021/05/14 11:29:41;;;;;;;4.60;1.80;;;15.40;99.90;;;;;;4927930;29;20822;-49
2021/05/14 11:32:34;;;;;;;3.53;1.80;;;15.50;99.90;;;;;;4933331;29;20449;-44
2021/05/14 11:35:12;;;;;;;2.27;1.60;;;15.40;99.90;;;;;;4938714;29;20440;-48
2021/05/14 11:37:41;;;;;;;2.50;1.80;;;15.20;99.90;;;;;;4926296;29;20496;-44
2021/05/14 11:40:11;;;;;;;3.90;2.10;;;15.10;99.90;;;;;;4931232;28;20453;-44
2021/05/14 11:42:40;;;;;;;4.53;1.90;;;14.80;99.90;;;;;;4933288;28;20441;-50
2021/05/14 11:45:08;;;;;;;5.90;2.33;;;14.50;99.90;;;;;;4929881;28;20496;-54
2021/05/14 11:47:35;;;;;;;3.10;2.00;;;14.20;99.90;;;;;;4934456;29;21013;-52
2021/05/14 11:50:03;;;;;;;2.67;1.90;;;14.00;99.90;;;;;;4924514;28;20544;-53
2021/05/14 11:52:38;;;;;;;2.43;1.77;;;13.90;99.90;;;;;;4927169;28;20489;-52
2021/05/14 12:27:59;;;;;;;4.43;2.00;;;12.50;99.90;;;;;;5706666;23;20484;-49
2021/05/14 12:30:39;;;;;;;2.17;1.87;;;12.60;99.90;;;;;;4921274;29;20778;-49
2021/05/14 12:33:08;;;;;;;3.13;1.40;;;12.70;99.90;;;;;;4922199;28;20453;-52
2021/05/14 12:35:34;;;;;;;5.77;1.73;;;12.80;99.90;;;;;;4950836;28;20493;-48
2021/05/14 12:38:02;;;;;;;2.40;1.97;;;13.10;99.90;;;;;;4945480;28;20950;-50
2021/05/14 12:40:34;;;;;;;4.33;1.50;;;13.60;99.90;;;;;;4928422;29;20453;-53
2021/05/14 12:43:07;;;;;;;2.23;1.53;;;14.10;99.90;;;;;;4926493;28;20452;-46
2021/05/14 12:45:36;;;;;;;1.70;1.37;;;14.40;99.90;;;;;;4930092;28;20453;-49
2021/05/14 12:48:03;;;;;;;3.23;1.30;;;14.50;99.90;;;;;;4952087;29;20453;-52
2021/05/14 12:50:30;;;;;;;2.97;1.77;;;14.40;99.90;;;;;;4954710;29;20424;-46
2021/05/14 12:52:56;;;;;;;3.60;1.73;;;14.50;99.90;;;;;;4944335;29;20524;-51
2021/05/14 12:55:24;;;;;;;2.30;1.40;;;14.70;99.90;;;;;;4947147;29;20446;-49
2021/05/14 12:57:57;;;;;;;2.40;1.90;;;14.60;99.90;;;;;;4950585;29;20426;-52
2021/05/14 13:00:26;;;;;;;2.40;1.77;;;14.60;99.90;;;;;;4953749;29;20447;-54
2021/05/14 13:02:53;;;;;;;2.60;1.40;;;14.70;99.90;;;;;;4941319;29;20863;-52
2021/05/14 13:05:31;;;;;;;1.50;1.30;;;14.80;99.90;;;;;;4953443;28;20459;-51
2021/05/14 13:08:02;;;;;;;2.70;1.47;;;15.00;99.90;;;;;;4960979;28;20440;-50
2021/05/14 13:10:44;;;;;;;3.83;1.70;;;14.80;99.90;;;;;;4949156;29;20461;-55
2021/05/14 13:13:11;;;;;;;1.97;1.23;;;14.80;99.90;;;;;;4947077;29;20457;-50
2021/05/14 13:15:55;;;;;;;1.63;1.50;;;14.50;99.90;;;;;;4946520;28;20492;-52
2021/05/14 13:18:26;;;;;;;4.13;1.50;;;14.30;99.90;;;;;;4946445;28;20468;-52
2021/05/14 13:20:54;;;;;;;2.30;1.00;;;14.10;99.90;;;;;;4950094;28;20468;-54
2021/05/14 13:23:20;;;;;;;3.83;1.37;;;13.90;99.90;;;;;;4946952;28;20433;-52
2021/05/14 13:25:49;;;;;;;2.20;1.40;;;13.80;99.90;;;;;;4952687;29;20543;-56
2021/05/14 13:28:15;;;;;;;1.67;1.40;;;13.80;99.90;;;;;;4940863;29;20500;-53
2021/05/14 13:30:41;;;;;;;4.80;1.50;;;13.50;99.90;;;;;;4948648;29;20444;-54